Time;durP1;ratioP1;P1;durP2;ratioP2;P2;SDS_P1;SDS_P2;PMS_P1;PMS_P2;Temp;Humidity;BMP_temperature;BMP_pressure;BME280_temperature;BME280_humidity;BME280_pressure;Samples;Min_cycle;Max_cycle;Signal;HPM_P1;HPM_P2
2022/07/30 00:01:34;;;;;;;11.63;6.80;;;;;;;;;;4994207;28;94939;-70
2022/07/30 00:04:01;;;;;;;14.30;6.50;;;;;;;;;;4994508;28;93891;-71
2022/07/30 00:06:28;;;;;;;14.27;5.63;;;;;;;;;;4995875;28;92457;-70
2022/07/30 00:08:54;;;;;;;12.93;5.93;;;;;;;;;;4995158;28;93181;-70
2022/07/30 00:11:21;;;;;;;13.55;5.80;;;;;;;;;;4994673;28;92813;-70
2022/07/30 00:13:53;;;;;;;14.13;5.65;;;;;;;;;;4995075;28;92546;-70
2022/07/30 00:16:19;;;;;;;11.88;5.97;;;;;;;;;;4998804;27;93067;-71
2022/07/30 00:18:46;;;;;;;13.15;5.80;;;;;;;;;;5001818;28;91695;-70
2022/07/30 00:21:13;;;;;;;17.60;5.63;;;;;;;;;;4999637;28;92408;-71
2022/07/30 00:24:00;;;;;;;17.05;6.60;;;;;;;;;;4998357;28;95078;-70
2022/07/30 00:26:27;;;;;;;15.82;5.25;;;;;;;;;;4997703;28;94720;-70
2022/07/30 00:28:54;;;;;;;12.75;5.10;;;;;;;;;;4996966;28;95486;-71
2022/07/30 00:31:20;;;;;;;11.52;5.85;;;;;;;;;;4997631;28;92345;-70
2022/07/30 00:33:47;;;;;;;7.65;5.22;;;;;;;;;;4998657;28;92436;-70
2022/07/30 00:36:13;;;;;;;18.83;6.22;;;;;;;;;;4998669;28;92975;-70
2022/07/30 00:38:39;;;;;;;12.57;5.38;;;;;;;;;;4996358;28;92335;-71
2022/07/30 00:41:06;;;;;;;18.50;5.47;;;;;;;;;;5002049;28;92414;-70
2022/07/30 00:43:32;;;;;;;11.00;5.18;;;;;;;;;;4998843;28;92687;-70
2022/07/30 00:45:58;;;;;;;14.80;6.22;;;;;;;;;;4997811;28;92429;-70
2022/07/30 00:48:25;;;;;;;14.93;5.88;;;;;;;;;;4997964;28;92853;-70
2022/07/30 00:50:51;;;;;;;18.80;6.68;;;;;;;;;;4996008;28;95617;-70
2022/07/30 00:53:17;;;;;;;14.32;5.85;;;;;;;;;;4996525;28;92864;-70
2022/07/30 00:55:44;;;;;;;13.20;7.35;;;;;;;;;;4998559;28;93007;-70
2022/07/30 00:58:10;;;;;;;15.50;6.20;;;;;;;;;;4998229;28;93315;-70
2022/07/30 01:00:37;;;;;;;18.00;6.10;;;;;;;;;;4997169;28;92425;-70
2022/07/30 01:03:03;;;;;;;17.30;5.60;;;;;;;;;;5000141;28;93315;-70
2022/07/30 01:05:30;;;;;;;17.67;6.45;;;;;;;;;;4998828;28;92421;-70
2022/07/30 01:07:56;;;;;;;17.63;6.78;;;;;;;;;;4997400;28;92818;-70
2022/07/30 01:10:22;;;;;;;16.90;6.30;;;;;;;;;;4998566;28;93010;-70
2022/07/30 01:12:51;;;;;;;13.18;6.28;;;;;;;;;;4998175;28;92430;-71
2022/07/30 01:15:18;;;;;;;11.15;6.15;;;;;;;;;;4996358;28;95171;-70
2022/07/30 01:17:46;;;;;;;17.17;7.50;;;;;;;;;;4996623;28;95021;-70
2022/07/30 01:20:23;;;;;;;12.48;6.63;;;;;;;;;;4998139;28;92370;-70
2022/07/30 01:22:50;;;;;;;16.98;6.47;;;;;;;;;;4998668;28;92891;-70
2022/07/30 01:25:26;;;;;;;13.52;6.68;;;;;;;;;;5033049;27;94959;-70
2022/07/30 01:27:58;;;;;;;17.75;7.55;;;;;;;;;;4994589;28;95337;-70
2022/07/30 01:30:26;;;;;;;10.97;6.53;;;;;;;;;;4996692;28;95616;-70
2022/07/30 01:32:54;;;;;;;12.70;6.72;;;;;;;;;;4996929;28;91814;-70
2022/07/30 01:35:22;;;;;;;18.10;6.97;;;;;;;;;;4995288;28;92389;-70
2022/07/30 01:37:50;;;;;;;22.35;7.82;;;;;;;;;;4995983;28;94145;-70
2022/07/30 01:40:18;;;;;;;13.77;6.50;;;;;;;;;;4995418;28;94998;-70
2022/07/30 01:42:45;;;;;;;13.30;6.50;;;;;;;;;;4997149;28;95336;-70
2022/07/30 01:45:12;;;;;;;10.80;7.47;;;;;;;;;;4996878;28;95245;-70
2022/07/30 01:47:41;;;;;;;14.52;7.35;;;;;;;;;;5000966;28;92460;-70
2022/07/30 01:50:12;;;;;;;21.98;7.78;;;;;;;;;;4997623;28;93041;-70
2022/07/30 01:52:40;;;;;;;20.67;7.72;;;;;;;;;;4997923;28;92423;-70
2022/07/30 01:55:08;;;;;;;13.05;7.82;;;;;;;;;;5029733;28;95200;-70
2022/07/30 01:57:44;;;;;;;15.32;8.02;;;;;;;;;;4996884;28;92970;-69
2022/07/30 02:00:11;;;;;;;15.07;7.10;;;;;;;;;;5029514;28;92969;-70
2022/07/30 02:02:44;;;;;;;13.65;7.65;;;;;;;;;;4996669;28;92463;-70
2022/07/30 02:05:11;;;;;;;16.52;7.75;;;;;;;;;;4994515;28;96500;-70
2022/07/30 02:07:44;;;;;;;17.40;7.55;;;;;;;;;;4999154;28;92565;-70
2022/07/30 02:10:21;;;;;;;14.80;7.00;;;;;;;;;;4997076;28;92623;-70
2022/07/30 02:12:54;;;;;;;11.10;7.78;;;;;;;;;;4995376;28;92354;-70
2022/07/30 02:15:22;;;;;;;12.25;7.38;;;;;;;;;;4995864;28;93111;-71
2022/07/30 02:17:56;;;;;;;17.48;8.32;;;;;;;;;;4994344;28;95081;-70
2022/07/30 02:20:25;;;;;;;22.38;8.48;;;;;;;;;;4997513;28;92433;-70
2022/07/30 02:22:57;;;;;;;21.15;8.85;;;;;;;;;;4996177;28;94786;-70
2022/07/30 02:25:24;;;;;;;15.77;8.30;;;;;;;;;;4995115;28;95063;-71
2022/07/30 02:27:53;;;;;;;14.05;7.93;;;;;;;;;;5029030;28;92743;-70
2022/07/30 02:30:25;;;;;;;18.75;8.23;;;;;;;;;;4997826;28;94871;-71
2022/07/30 02:32:54;;;;;;;18.27;8.20;;;;;;;;;;4995213;28;92316;-72
2022/07/30 02:35:22;;;;;;;17.50;8.52;;;;;;;;;;4997268;28;92366;-71
2022/07/30 02:37:51;;;;;;;15.73;8.90;;;;;;;;;;4994113;28;93452;-71
2022/07/30 02:40:18;;;;;;;19.60;8.43;;;;;;;;;;4995292;28;92570;-70
2022/07/30 02:42:46;;;;;;;15.95;8.80;;;;;;;;;;4997171;28;94336;-70
2022/07/30 02:45:16;;;;;;;23.73;8.80;;;;;;;;;;4994441;28;93187;-71
2022/07/30 02:47:48;;;;;;;16.52;8.95;;;;;;;;;;4996789;28;91675;-70
2022/07/30 02:50:16;;;;;;;19.75;8.80;;;;;;;;;;4994967;28;94245;-70
2022/07/30 02:52:44;;;;;;;17.67;8.90;;;;;;;;;;4998597;28;92954;-70
2022/07/30 02:55:11;;;;;;;13.30;7.90;;;;;;;;;;5027354;28;95774;-69
2022/07/30 02:57:40;;;;;;;13.48;8.40;;;;;;;;;;5027040;28;95433;-70
2022/07/30 03:00:10;;;;;;;20.48;8.48;;;;;;;;;;4994386;28;92815;-70
2022/07/30 03:02:37;;;;;;;11.88;8.20;;;;;;;;;;4995117;28;92338;-70
2022/07/30 03:05:05;;;;;;;16.88;8.52;;;;;;;;;;5027842;28;95147;-70
2022/07/30 03:07:33;;;;;;;13.43;8.93;;;;;;;;;;4993564;28;94055;-70
2022/07/30 03:10:00;;;;;;;20.70;9.68;;;;;;;;;;4994593;28;94741;-70
2022/07/30 03:12:31;;;;;;;14.18;7.50;;;;;;;;;;4995440;28;92472;-70
2022/07/30 03:14:58;;;;;;;13.00;8.90;;;;;;;;;;5030832;28;93190;-70
2022/07/30 03:17:25;;;;;;;14.45;8.23;;;;;;;;;;4996096;28;93390;-70
2022/07/30 03:19:52;;;;;;;16.15;9.10;;;;;;;;;;5025744;28;94738;-71
2022/07/30 03:22:21;;;;;;;14.05;8.25;;;;;;;;;;4996016;28;95077;-70
2022/07/30 03:24:48;;;;;;;17.40;9.70;;;;;;;;;;4994216;28;94903;-70
2022/07/30 03:27:15;;;;;;;16.17;9.70;;;;;;;;;;4995229;28;92467;-70
2022/07/30 03:29:42;;;;;;;14.25;9.50;;;;;;;;;;5028169;28;92915;-71
2022/07/30 03:32:09;;;;;;;14.40;8.85;;;;;;;;;;4995559;28;94154;-70
2022/07/30 03:34:40;;;;;;;17.83;8.50;;;;;;;;;;4993717;28;92463;-70
2022/07/30 03:37:07;;;;;;;18.15;8.48;;;;;;;;;;5031479;28;94687;-70
2022/07/30 03:39:35;;;;;;;18.75;9.05;;;;;;;;;;5027694;28;92526;-70
2022/07/30 03:42:05;;;;;;;13.52;8.52;;;;;;;;;;5027113;28;97171;-70
2022/07/30 03:44:32;;;;;;;17.75;9.82;;;;;;;;;;4992721;28;97493;-70
2022/07/30 03:47:00;;;;;;;16.15;9.48;;;;;;;;;;5027407;28;92574;-70
2022/07/30 03:49:29;;;;;;;10.43;8.88;;;;;;;;;;5026912;28;92963;-70
2022/07/30 03:51:56;;;;;;;13.80;9.38;;;;;;;;;;4993535;28;96069;-70
2022/07/30 03:54:23;;;;;;;24.80;9.45;;;;;;;;;;5027724;28;92550;-70
2022/07/30 03:57:08;;;;;;;21.95;9.25;;;;;;;;;;4994635;28;92574;-70
2022/07/30 03:59:41;;;;;;;14.55;9.68;;;;;;;;;;4996250;28;95049;-70
2022/07/30 04:02:08;;;;;;;14.48;9.27;;;;;;;;;;4994259;28;95009;-70
2022/07/30 04:04:53;;;;;;;18.77;8.95;;;;;;;;;;4993702;28;93198;-70
2022/07/30 04:07:21;;;;;;;18.77;9.52;;;;;;;;;;4994643;28;92487;-70
2022/07/30 04:09:48;;;;;;;19.38;9.73;;;;;;;;;;4991945;28;94981;-69
2022/07/30 04:12:34;;;;;;;11.38;9.00;;;;;;;;;;4993927;28;94163;-70
2022/07/30 04:15:01;;;;;;;15.63;8.73;;;;;;;;;;5027400;28;92493;-70
2022/07/30 04:17:50;;;;;;;15.75;9.45;;;;;;;;;;4993119;28;95406;-69
2022/07/30 04:20:20;;;;;;;16.20;9.95;;;;;;;;;;4996827;28;93651;-69
2022/07/30 04:22:48;;;;;;;12.98;10.00;;;;;;;;;;4995109;28;93855;-69
2022/07/30 04:25:15;;;;;;;16.08;9.82;;;;;;;;;;4992366;28;93258;-69
2022/07/30 04:27:50;;;;;;;13.25;10.10;;;;;;;;;;4993567;28;91784;-69
2022/07/30 04:30:29;;;;;;;15.02;10.35;;;;;;;;;;4992088;28;94185;-69
2022/07/30 04:32:56;;;;;;;13.10;9.60;;;;;;;;;;4993964;28;92287;-69
2022/07/30 04:35:42;;;;;;;19.17;10.32;;;;;;;;;;4993466;28;94896;-68
2022/07/30 04:38:37;;;;;;;16.67;10.68;;;;;;;;;;4992570;28;95115;-69
2022/07/30 04:41:04;;;;;;;16.30;11.18;;;;;;;;;;4992915;28;93175;-68
2022/07/30 04:43:56;;;;;;;16.65;10.50;;;;;;;;;;4995481;28;92395;-68
2022/07/30 04:46:24;;;;;;;18.67;10.93;;;;;;;;;;4991900;28;93176;-69
2022/07/30 04:48:51;;;;;;;13.48;10.07;;;;;;;;;;5025723;28;92625;-69
2022/07/30 04:51:22;;;;;;;15.50;11.98;;;;;;;;;;5025157;28;94739;-69
2022/07/30 04:53:49;;;;;;;28.98;11.98;;;;;;;;;;4992930;28;94295;-69
2022/07/30 04:56:19;;;;;;;18.75;12.00;;;;;;;;;;4993167;28;92372;-69
2022/07/30 04:58:46;;;;;;;18.75;12.85;;;;;;;;;;4991598;28;93976;-69
2022/07/30 05:01:17;;;;;;;17.90;12.18;;;;;;;;;;4991894;28;97941;-69
2022/07/30 05:03:46;;;;;;;18.45;12.02;;;;;;;;;;4997495;28;92347;-69
2022/07/30 05:06:13;;;;;;;16.70;11.68;;;;;;;;;;4999397;28;94698;-69
2022/07/30 05:08:40;;;;;;;19.98;11.55;;;;;;;;;;4996522;28;92293;-69
2022/07/30 05:11:10;;;;;;;18.30;10.32;;;;;;;;;;4996783;28;92435;-69
2022/07/30 05:13:39;;;;;;;20.83;11.80;;;;;;;;;;4995568;28;92746;-69
2022/07/30 05:16:07;;;;;;;15.93;10.13;;;;;;;;;;4995560;28;92563;-69
2022/07/30 05:18:34;;;;;;;20.85;11.00;;;;;;;;;;4997664;28;91607;-69
2022/07/30 05:21:00;;;;;;;17.23;10.90;;;;;;;;;;4996627;28;93532;-69
2022/07/30 05:23:30;;;;;;;11.02;9.82;;;;;;;;;;4997151;28;92533;-69
2022/07/30 05:26:12;;;;;;;14.37;9.53;;;;;;;;;;4994958;28;94757;-69
2022/07/30 05:28:43;;;;;;;9.68;8.52;;;;;;;;;;4999230;28;93494;-70
2022/07/30 05:31:16;;;;;;;13.10;9.18;;;;;;;;;;4996563;28;93066;-69
2022/07/30 05:33:51;;;;;;;10.80;9.65;;;;;;;;;;5028853;28;93223;-69
2022/07/30 05:36:23;;;;;;;;;;;;;;;;;;4996566;28;92429;-69
2022/07/30 05:38:49;;;;;;;17.60;9.32;;;;;;;;;;4996792;28;125402;-69
2022/07/30 05:41:29;;;;;;;16.05;8.75;;;;;;;;;;4995522;28;93198;-69
2022/07/30 05:44:18;;;;;;;11.57;9.65;;;;;;;;;;4996790;28;91641;-69
2022/07/30 05:46:52;;;;;;;12.70;7.78;;;;;;;;;;4995451;28;93987;-69
2022/07/30 05:49:19;;;;;;;14.48;8.50;;;;;;;;;;5028654;28;93257;-69
2022/07/30 05:51:45;;;;;;;17.92;8.32;;;;;;;;;;4997144;28;95398;-69
2022/07/30 05:54:12;;;;;;;12.25;7.82;;;;;;;;;;4997251;28;93542;-69
2022/07/30 05:56:59;;;;;;;13.23;7.93;;;;;;;;;;4995409;28;92634;-69
2022/07/30 05:59:36;;;;;;;12.00;6.97;;;;;;;;;;4997498;28;92704;-70
2022/07/30 06:02:03;;;;;;;10.77;7.03;;;;;;;;;;4996605;28;92369;-69
2022/07/30 06:04:48;;;;;;;11.65;7.32;;;;;;;;;;4994846;28;92335;-70
2022/07/30 06:07:15;;;;;;;14.95;7.43;;;;;;;;;;4995983;28;92947;-69
2022/07/30 06:09:42;;;;;;;15.45;7.47;;;;;;;;;;4995216;28;94243;-70
2022/07/30 06:12:09;;;;;;;7.78;6.55;;;;;;;;;;4996008;28;92567;-70
2022/07/30 06:14:35;;;;;;;11.27;6.80;;;;;;;;;;4997550;28;93037;-71
2022/07/30 06:17:04;;;;;;;8.48;6.10;;;;;;;;;;4993714;28;95023;-70
2022/07/30 06:19:52;;;;;;;10.93;6.55;;;;;;;;;;4996934;28;94888;-70
2022/07/30 06:22:20;;;;;;;8.05;6.30;;;;;;;;;;4995661;28;93147;-70
2022/07/30 06:24:52;;;;;;;7.30;6.00;;;;;;;;;;4994863;28;93041;-70
2022/07/30 06:27:22;;;;;;;8.18;5.43;;;;;;;;;;4995555;28;92923;-70
2022/07/30 06:29:49;;;;;;;6.68;5.10;;;;;;;;;;4994456;28;93186;-70
2022/07/30 06:32:16;;;;;;;10.60;5.43;;;;;;;;;;4996006;28;92452;-70
2022/07/30 06:34:42;;;;;;;9.93;4.40;;;;;;;;;;4998630;28;92575;-70
2022/07/30 06:37:10;;;;;;;10.70;4.95;;;;;;;;;;4994997;28;92948;-70
2022/07/30 06:39:39;;;;;;;7.95;3.88;;;;;;;;;;4995139;28;95286;-70
2022/07/30 06:42:42;;;;;;;8.45;4.25;;;;;;;;;;4992677;28;95174;-70
2022/07/30 06:45:28;;;;;;;9.82;3.30;;;;;;;;;;4995832;28;92824;-71
2022/07/30 06:48:13;;;;;;;8.88;3.50;;;;;;;;;;4996702;28;92442;-71
2022/07/30 06:50:40;;;;;;;16.00;3.38;;;;;;;;;;4994524;28;94988;-71
2022/07/30 06:53:07;;;;;;;7.72;2.55;;;;;;;;;;4995286;28;92341;-71
2022/07/30 06:55:53;;;;;;;8.18;3.40;;;;;;;;;;4996186;28;93645;-71
2022/07/30 06:58:29;;;;;;;5.18;2.55;;;;;;;;;;4997323;28;93269;-71
2022/07/30 07:01:19;;;;;;;7.88;2.55;;;;;;;;;;4996512;28;92519;-71
2022/07/30 07:03:46;;;;;;;6.00;1.90;;;;;;;;;;4996463;28;93383;-71
2022/07/30 07:06:13;;;;;;;6.20;2.10;;;;;;;;;;4993829;28;92540;-71
2022/07/30 07:08:41;;;;;;;9.32;2.17;;;;;;;;;;4993323;28;95087;-71
2022/07/30 07:11:10;;;;;;;4.72;1.90;;;;;;;;;;4994918;28;94329;-71
2022/07/30 07:13:46;;;;;;;6.85;2.70;;;;;;;;;;4993993;28;93459;-71
2022/07/30 07:16:24;;;;;;;3.80;2.10;;;;;;;;;;4994508;28;92910;-71
2022/07/30 07:18:52;;;;;;;5.18;2.00;;;;;;;;;;5027358;28;93273;-72
2022/07/30 07:21:19;;;;;;;10.07;2.20;;;;;;;;;;4998924;28;92216;-69
2022/07/30 07:23:47;;;;;;;7.40;2.40;;;;;;;;;;4995445;28;93038;-70
2022/07/30 07:26:32;;;;;;;5.78;2.47;;;;;;;;;;4993689;28;91713;-69
2022/07/30 07:28:59;;;;;;;6.20;3.13;;;;;;;;;;4994364;28;92606;-70
2022/07/30 07:31:31;;;;;;;5.15;2.30;;;;;;;;;;4995927;28;93206;-70
2022/07/30 07:34:18;;;;;;;5.15;1.90;;;;;;;;;;5026077;28;94866;-70
2022/07/30 07:36:45;;;;;;;5.32;1.88;;;;;;;;;;4995913;28;94858;-70
2022/07/30 07:39:11;;;;;;;3.97;1.83;;;;;;;;;;4994930;28;94079;-70
2022/07/30 07:41:41;;;;;;;7.88;2.05;;;;;;;;;;4993796;28;93012;-70
2022/07/30 07:44:16;;;;;;;8.13;2.33;;;;;;;;;;4997227;28;92813;-71
2022/07/30 07:46:43;;;;;;;11.02;1.90;;;;;;;;;;4994947;28;92340;-70
2022/07/30 07:49:09;;;;;;;4.78;2.03;;;;;;;;;;4992852;28;95675;-70
2022/07/30 07:51:42;;;;;;;8.18;1.77;;;;;;;;;;4994430;28;94206;-69
2022/07/30 07:54:16;;;;;;;3.13;1.70;;;;;;;;;;4993429;28;92872;-70
2022/07/30 07:56:50;;;;;;;3.63;1.45;;;;;;;;;;4994363;28;93069;-70
2022/07/30 07:59:18;;;;;;;4.90;1.70;;;;;;;;;;5025517;28;95583;-70
2022/07/30 08:01:45;;;;;;;4.95;1.63;;;;;;;;;;4992779;28;92583;-71
2022/07/30 08:04:31;;;;;;;5.13;2.00;;;;;;;;;;4994332;28;92300;-71
2022/07/30 08:07:09;;;;;;;5.13;2.13;;;;;;;;;;4997358;28;92792;-71
2022/07/30 08:09:55;;;;;;;6.72;2.20;;;;;;;;;;4994002;28;92537;-71
2022/07/30 08:12:28;;;;;;;4.93;1.90;;;;;;;;;;4994615;28;94243;-71
2022/07/30 08:15:14;;;;;;;2.28;1.70;;;;;;;;;;4992129;28;92422;-71
2022/07/30 08:18:03;;;;;;;5.95;1.60;;;;;;;;;;4995757;28;92701;-70
2022/07/30 08:20:50;;;;;;;4.97;1.83;;;;;;;;;;4994184;28;92969;-70
2022/07/30 08:23:22;;;;;;;4.43;1.67;;;;;;;;;;4993805;28;92436;-70
2022/07/30 08:25:48;;;;;;;8.23;1.90;;;;;;;;;;5025586;28;94822;-70
2022/07/30 08:28:16;;;;;;;3.55;1.40;;;;;;;;;;4994712;28;93874;-70
2022/07/30 08:31:02;;;;;;;9.50;1.98;;;;;;;;;;4995847;28;92519;-70
2022/07/30 08:33:29;;;;;;;3.17;1.40;;;;;;;;;;4993904;28;94046;-70
2022/07/30 08:35:55;;;;;;;5.43;1.83;;;;;;;;;;4995141;28;92454;-69
2022/07/30 08:38:31;;;;;;;5.20;1.60;;;;;;;;;;4997100;28;95876;-70
2022/07/30 08:40:57;;;;;;;2.45;1.50;;;;;;;;;;4996851;28;95993;-70
2022/07/30 08:43:27;;;;;;;4.95;1.60;;;;;;;;;;4998360;28;91700;-71
2022/07/30 08:45:55;;;;;;;6.72;1.73;;;;;;;;;;4996969;28;95701;-71
2022/07/30 08:48:41;;;;;;;4.60;1.67;;;;;;;;;;4997254;28;92670;-71
2022/07/30 08:51:11;;;;;;;4.67;1.80;;;;;;;;;;4997949;28;94972;-71
2022/07/30 08:54:15;;;;;;;4.10;1.70;;;;;;;;;;5030241;28;93103;-70
2022/07/30 08:56:41;;;;;;;4.72;1.65;;;;;;;;;;4996608;28;92416;-70
2022/07/30 08:59:08;;;;;;;2.70;1.40;;;;;;;;;;4995890;28;93242;-70
2022/07/30 09:01:37;;;;;;;3.10;1.33;;;;;;;;;;5029707;28;94373;-70
2022/07/30 09:04:03;;;;;;;4.68;1.75;;;;;;;;;;5030762;28;92439;-71
2022/07/30 09:06:31;;;;;;;4.18;1.90;;;;;;;;;;4996458;28;95971;-71
2022/07/30 09:08:57;;;;;;;5.15;1.30;;;;;;;;;;5030338;28;93327;-71
2022/07/30 09:11:24;;;;;;;4.78;1.60;;;;;;;;;;4997205;28;92489;-70
2022/07/30 09:13:50;;;;;;;8.77;2.17;;;;;;;;;;4998966;28;95122;-70
2022/07/30 09:16:19;;;;;;;5.60;1.58;;;;;;;;;;4995221;28;94876;-71
2022/07/30 09:18:46;;;;;;;5.60;2.00;;;;;;;;;;5029187;28;95187;-70
2022/07/30 09:21:17;;;;;;;1.58;1.38;;;;;;;;;;4998034;28;93235;-71
2022/07/30 09:23:55;;;;;;;4.45;1.42;;;;;;;;;;4997451;28;92324;-71
2022/07/30 09:26:51;;;;;;;6.00;2.15;;;;;;;;;;4990212;28;93205;-71
2022/07/30 09:29:36;;;;;;;5.07;1.50;;;;;;;;;;4995766;28;92314;-71
2022/07/30 09:32:21;;;;;;;2.47;1.23;;;;;;;;;;4997022;28;92386;-71
2022/07/30 09:35:12;;;;;;;5.20;1.70;;;;;;;;;;4998931;28;91617;-71
2022/07/30 09:37:59;;;;;;;4.40;1.73;;;;;;;;;;4999144;28;92872;-71
2022/07/30 09:41:07;;;;;;;2.53;1.58;;;;;;;;;;4982137;28;93574;-71
2022/07/30 09:44:06;;;;;;;3.15;1.23;;;;;;;;;;4994121;28;97775;-71
2022/07/30 09:46:52;;;;;;;4.45;1.48;;;;;;;;;;4994933;28;92459;-71
2022/07/30 09:49:32;;;;;;;7.15;1.73;;;;;;;;;;4995225;28;95058;-71
2022/07/30 09:52:00;;;;;;;5.28;1.67;;;;;;;;;;4997277;28;92998;-71
2022/07/30 09:54:45;;;;;;;7.55;1.90;;;;;;;;;;4995210;28;92570;-71
2022/07/30 09:57:18;;;;;;;3.95;1.70;;;;;;;;;;4997603;28;92622;-71
2022/07/30 10:00:00;;;;;;;2.90;1.90;;;;;;;;;;4997275;28;93110;-71
2022/07/30 10:02:29;;;;;;;4.25;1.70;;;;;;;;;;5031935;28;91830;-71
2022/07/30 10:05:21;;;;;;;4.82;1.45;;;;;;;;;;4997157;28;92987;-71
2022/07/30 10:07:56;;;;;;;3.45;1.75;;;;;;;;;;4997139;28;92550;-71
2022/07/30 10:10:27;;;;;;;3.80;2.20;;;;;;;;;;4996056;28;94882;-71
2022/07/30 10:12:58;;;;;;;5.05;1.60;;;;;;;;;;4995878;28;93973;-71
2022/07/30 10:15:28;;;;;;;10.07;1.92;;;;;;;;;;5028631;28;92982;-71
2022/07/30 10:17:57;;;;;;;3.95;2.03;;;;;;;;;;4996003;28;94823;-72
2022/07/30 10:20:44;;;;;;;5.75;1.70;;;;;;;;;;4994993;28;92785;-72
2022/07/30 10:23:31;;;;;;;5.97;2.10;;;;;;;;;;5028242;28;92901;-72
2022/07/30 10:26:17;;;;;;;9.32;1.55;;;;;;;;;;4997694;28;92407;-72
2022/07/30 10:29:02;;;;;;;2.67;1.98;;;;;;;;;;4996479;28;91644;-71
2022/07/30 10:31:29;;;;;;;4.47;1.45;;;;;;;;;;4996641;28;92393;-71
2022/07/30 10:34:16;;;;;;;4.57;1.90;;;;;;;;;;4997786;27;93253;-71
2022/07/30 10:36:54;;;;;;;4.55;2.00;;;;;;;;;;4994066;28;94930;-71
2022/07/30 10:39:28;;;;;;;4.30;2.00;;;;;;;;;;4996813;28;95675;-71
2022/07/30 10:42:19;;;;;;;3.33;2.08;;;;;;;;;;4996629;28;94217;-71
2022/07/30 10:44:54;;;;;;;2.97;1.65;;;;;;;;;;4995588;28;92534;-72
2022/07/30 10:47:23;;;;;;;3.40;1.65;;;;;;;;;;4999557;28;93446;-72
2022/07/30 10:50:06;;;;;;;5.40;1.67;;;;;;;;;;4995635;28;92374;-72
2022/07/30 10:52:43;;;;;;;2.83;1.20;;;;;;;;;;4996331;28;93829;-71
2022/07/30 10:55:13;;;;;;;4.80;1.85;;;;;;;;;;4998312;27;92248;-71
2022/07/30 10:57:55;;;;;;;1.98;1.30;;;;;;;;;;4995557;28;92466;-71
2022/07/30 11:00:26;;;;;;;3.30;1.40;;;;;;;;;;4996233;28;92814;-71
2022/07/30 11:03:10;;;;;;;2.78;1.48;;;;;;;;;;4994503;28;95514;-71
2022/07/30 11:05:42;;;;;;;4.13;1.73;;;;;;;;;;4996111;28;92864;-70
2022/07/30 11:08:31;;;;;;;4.40;2.00;;;;;;;;;;4997211;28;92789;-71
2022/07/30 11:11:03;;;;;;;3.78;1.45;;;;;;;;;;4998713;28;94312;-70
2022/07/30 11:13:53;;;;;;;3.65;1.65;;;;;;;;;;4996183;28;93094;-71
2022/07/30 11:16:41;;;;;;;3.30;1.40;;;;;;;;;;4996483;28;93019;-71
2022/07/30 11:19:23;;;;;;;3.45;2.00;;;;;;;;;;4982084;28;92444;-70
2022/07/30 11:22:21;;;;;;;2.10;1.63;;;;;;;;;;4996859;28;92965;-70
2022/07/30 11:24:48;;;;;;;3.22;1.40;;;;;;;;;;4995748;28;93465;-70
2022/07/30 11:27:33;;;;;;;5.25;1.92;;;;;;;;;;4995454;28;92455;-71
2022/07/30 11:30:02;;;;;;;3.30;1.42;;;;;;;;;;4994618;28;94754;-70
2022/07/30 11:32:29;;;;;;;5.03;1.77;;;;;;;;;;4995289;28;92665;-70
2022/07/30 11:35:16;;;;;;;3.40;1.40;;;;;;;;;;4998669;28;92450;-70
2022/07/30 11:38:02;;;;;;;3.80;1.83;;;;;;;;;;4995865;28;93557;-70
2022/07/30 11:40:30;;;;;;;3.80;1.63;;;;;;;;;;4996072;27;92382;-70
2022/07/30 11:43:15;;;;;;;2.60;1.80;;;;;;;;;;4995963;28;93156;-70
2022/07/30 11:45:42;;;;;;;4.90;1.60;;;;;;;;;;4995847;28;94190;-70
2022/07/30 11:48:10;;;;;;;2.65;1.40;;;;;;;;;;4994864;28;93269;-71
2022/07/30 11:50:36;;;;;;;4.57;1.50;;;;;;;;;;4995048;28;93385;-70
2022/07/30 11:53:04;;;;;;;2.35;1.60;;;;;;;;;;4995564;28;92394;-70
2022/07/30 11:55:33;;;;;;;2.35;1.50;;;;;;;;;;4993303;28;94867;-70
2022/07/30 11:58:01;;;;;;;3.20;1.75;;;;;;;;;;4998365;28;96333;-70
2022/07/30 12:00:39;;;;;;;3.33;2.03;;;;;;;;;;4995068;28;92574;-70
2022/07/30 12:03:06;;;;;;;4.43;1.60;;;;;;;;;;4995720;28;94116;-70
2022/07/30 12:05:36;;;;;;;3.40;1.60;;;;;;;;;;4995114;28;94047;-70
2022/07/30 12:08:04;;;;;;;3.80;1.85;;;;;;;;;;4994885;28;92445;-71
2022/07/30 12:10:30;;;;;;;6.30;1.77;;;;;;;;;;4994833;28;93097;-70
2022/07/30 12:13:06;;;;;;;3.47;1.40;;;;;;;;;;4995516;28;92835;-71
2022/07/30 12:15:36;;;;;;;2.75;1.35;;;;;;;;;;4994491;28;92471;-71
2022/07/30 12:18:02;;;;;;;6.75;1.50;;;;;;;;;;4995378;28;93128;-71
2022/07/30 12:20:57;;;;;;;4.82;1.58;;;;;;;;;;4996630;28;95721;-70
2022/07/30 12:23:25;;;;;;;5.32;1.40;;;;;;;;;;4995056;28;95547;-71
2022/07/30 12:25:51;;;;;;;3.45;1.67;;;;;;;;;;5026880;28;93273;-71
2022/07/30 12:28:19;;;;;;;4.25;1.10;;;;;;;;;;4994340;28;92483;-70
2022/07/30 12:30:47;;;;;;;9.55;1.70;;;;;;;;;;4994649;28;93146;-69
2022/07/30 12:33:14;;;;;;;4.68;1.48;;;;;;;;;;4994872;28;93782;-71
2022/07/30 12:35:43;;;;;;;1.63;1.27;;;;;;;;;;4994171;28;92606;-71
2022/07/30 12:38:10;;;;;;;4.90;1.60;;;;;;;;;;4995379;28;93142;-70
2022/07/30 12:40:53;;;;;;;5.93;1.40;;;;;;;;;;4994741;28;93253;-70
2022/07/30 12:43:38;;;;;;;1.30;1.20;;;;;;;;;;4997390;28;93157;-70
2022/07/30 12:46:04;;;;;;;2.63;1.48;;;;;;;;;;4993723;28;95718;-70
2022/07/30 12:48:31;;;;;;;5.95;1.50;;;;;;;;;;4994672;28;92752;-71
2022/07/30 12:51:07;;;;;;;4.45;1.70;;;;;;;;;;4993816;28;93051;-70
2022/07/30 12:53:34;;;;;;;2.00;1.20;;;;;;;;;;4995011;28;93049;-70
2022/07/30 12:56:10;;;;;;;4.55;1.40;;;;;;;;;;4995113;28;92683;-70
2022/07/30 12:58:37;;;;;;;4.93;1.70;;;;;;;;;;4993707;28;93156;-71
2022/07/30 13:01:03;;;;;;;4.18;1.65;;;;;;;;;;4994583;28;93163;-70
2022/07/30 13:03:38;;;;;;;1.63;1.40;;;;;;;;;;4997367;28;91742;-70
2022/07/30 13:06:17;;;;;;;2.53;1.27;;;;;;;;;;4994282;28;93232;-70
2022/07/30 13:08:45;;;;;;;3.60;1.25;;;;;;;;;;4993969;28;92413;-70
2022/07/30 13:11:12;;;;;;;5.57;1.48;;;;;;;;;;4992906;28;95277;-70
2022/07/30 13:13:38;;;;;;;4.68;1.42;;;;;;;;;;4994335;28;93475;-70
2022/07/30 13:16:05;;;;;;;3.38;1.45;;;;;;;;;;4994514;28;92822;-70
2022/07/30 13:18:32;;;;;;;4.13;1.40;;;;;;;;;;4994671;28;93124;-71
2022/07/30 13:20:59;;;;;;;1.60;1.35;;;;;;;;;;4994651;28;94161;-70
2022/07/30 13:23:26;;;;;;;3.22;1.40;;;;;;;;;;4995607;28;92565;-70
2022/07/30 13:25:52;;;;;;;2.10;1.30;;;;;;;;;;4999652;28;93265;-71
2022/07/30 13:28:19;;;;;;;5.32;1.60;;;;;;;;;;4998173;28;91860;-71
2022/07/30 13:30:46;;;;;;;5.32;1.25;;;;;;;;;;4997947;28;93236;-70
2022/07/30 13:33:13;;;;;;;2.08;1.60;;;;;;;;;;4997390;28;92745;-70
2022/07/30 13:35:39;;;;;;;4.25;1.65;;;;;;;;;;4996369;28;94838;-71
2022/07/30 13:38:06;;;;;;;5.45;1.42;;;;;;;;;;4997615;28;95410;-71
2022/07/30 13:40:32;;;;;;;7.43;1.75;;;;;;;;;;4996790;28;94275;-71
2022/07/30 13:42:59;;;;;;;5.30;1.70;;;;;;;;;;4997364;28;92459;-70
2022/07/30 13:45:28;;;;;;;3.25;1.40;;;;;;;;;;4997899;28;92985;-70
2022/07/30 13:47:55;;;;;;;3.72;1.58;;;;;;;;;;4999069;28;93447;-71
2022/07/30 13:50:21;;;;;;;3.25;2.40;;;;;;;;;;4998028;28;93252;-70
2022/07/30 13:52:48;;;;;;;3.55;1.45;;;;;;;;;;4996596;28;93991;-71
2022/07/30 13:55:14;;;;;;;5.45;1.70;;;;;;;;;;4997742;28;92479;-71
2022/07/30 13:57:41;;;;;;;4.82;1.95;;;;;;;;;;4997436;28;93973;-71
2022/07/30 14:00:11;;;;;;;2.80;1.40;;;;;;;;;;4994948;28;95569;-71
2022/07/30 14:02:38;;;;;;;6.50;1.88;;;;;;;;;;4997185;28;92400;-71
2022/07/30 14:05:06;;;;;;;4.20;1.55;;;;;;;;;;4997401;28;93319;-70
2022/07/30 14:07:33;;;;;;;1.67;1.48;;;;;;;;;;4996534;28;93762;-71
2022/07/30 14:09:59;;;;;;;3.83;1.90;;;;;;;;;;4999778;28;92407;-71
2022/07/30 14:12:26;;;;;;;8.65;1.30;;;;;;;;;;4997372;28;93414;-70
2022/07/30 14:14:54;;;;;;;4.72;2.10;;;;;;;;;;4996438;28;92521;-69
2022/07/30 14:17:20;;;;;;;1.75;1.50;;;;;;;;;;4997874;28;92999;-71
2022/07/30 14:19:49;;;;;;;4.40;1.50;;;;;;;;;;4996791;28;94054;-70
2022/07/30 14:22:15;;;;;;;4.90;1.40;;;;;;;;;;4996769;28;92554;-71
2022/07/30 14:24:41;;;;;;;3.10;1.58;;;;;;;;;;4995382;28;94935;-70
2022/07/30 14:27:08;;;;;;;3.38;1.40;;;;;;;;;;4996565;28;92533;-71
2022/07/30 14:29:34;;;;;;;7.85;1.60;;;;;;;;;;4995886;28;92344;-71
2022/07/30 14:32:01;;;;;;;5.95;1.60;;;;;;;;;;4999964;28;93231;-71
2022/07/30 14:34:27;;;;;;;2.33;1.30;;;;;;;;;;4996184;28;92570;-71
2022/07/30 14:36:53;;;;;;;6.43;1.33;;;;;;;;;;4995620;28;94375;-70
2022/07/30 14:39:20;;;;;;;3.00;1.52;;;;;;;;;;4996634;28;93585;-71
2022/07/30 14:41:46;;;;;;;4.57;1.92;;;;;;;;;;4996998;28;91665;-70
2022/07/30 14:44:17;;;;;;;2.67;1.77;;;;;;;;;;4996208;28;93443;-70
2022/07/30 14:46:46;;;;;;;2.70;1.55;;;;;;;;;;4996894;27;93280;-71
2022/07/30 14:49:18;;;;;;;7.60;2.05;;;;;;;;;;4993667;28;94830;-70
2022/07/30 14:51:45;;;;;;;2.28;1.45;;;;;;;;;;4996268;28;95617;-71
2022/07/30 14:54:12;;;;;;;7.63;2.03;;;;;;;;;;4999569;28;92443;-71
2022/07/30 14:56:39;;;;;;;3.78;1.50;;;;;;;;;;4995355;28;92867;-70
2022/07/30 14:59:06;;;;;;;4.55;1.50;;;;;;;;;;4996527;28;93499;-70
2022/07/30 15:01:32;;;;;;;8.77;2.15;;;;;;;;;;4996260;28;92442;-71
2022/07/30 15:03:59;;;;;;;5.38;1.45;;;;;;;;;;4995527;28;93335;-70